Terminal Aerodrome Forecast
Issued by NWS Tampa Bay Area, FL

Home | Current Version | Previous Version | Text Only | Print | Product List | Glossary On
Versions: 1 2 3 4 5 6 7 8 9 10 11 12 13 14 15 16 17 18 19
000
FTUS42 KTBW 021731
TAFSRQ
TAF
KSRQ 021731Z 0218/0318 23011KT P6SM VCSH SCT025 BKN100
     FM030200 22009KT P6SM VCSH SCT025 BKN250
     FM031500 24010KT P6SM VCSH SCT020 BKN100=

USA.gov is the U.S. government's official web portal to all federal, state and local government web resources and services.